Glen Oaks, New York
Current Conditions -  °F | °C
As of 9:51 PM on Tuesday 21 Oct 2014 (Local Time) from KJFK Reporting Station
Broken Clouds Broken Clouds  
Wind Chill: 58°   Ceiling: 13000
Heat Index: 58°   Visibility: 10mi
Dew Point: 52°   Wind: 8mph
Humidity: 81%   Direction: 10°N
Pressure: 29.91"   Gusts: NA
Location:  40.75°N, 73.71°W
Report Text: KJFK 220151Z 01007KT 10SM FEW020 SCT035 BKN130 BKN210 14/11 A2991 RMK AO2 SLP127 T01440111
Loading
Personal Weather Stations






























Interactive Weather Map New forecast layout! Learn more

10-Day Weather Forecast

Advertisements
Track Severe Weather on mobile